sensor_id;sensor_type;location;lat;lon;timestamp;temperature;humidity
68109;SHT30;54893;49.864;19.084;2023-05-07T00:00:10;10.58;90.11
68109;SHT30;54893;49.864;19.084;2023-05-07T00:05:11;10.56;90.29
68109;SHT30;54893;49.864;19.084;2023-05-07T00:10:12;10.58;90.28
68109;SHT30;54893;49.864;19.084;2023-05-07T00:15:12;10.55;90.56
68109;SHT30;54893;49.864;19.084;2023-05-07T00:20:13;10.48;90.52
68109;SHT30;54893;49.864;19.084;2023-05-07T00:25:13;10.39;90.81
68109;SHT30;54893;49.864;19.084;2023-05-07T00:30:14;10.35;90.70
68109;SHT30;54893;49.864;19.084;2023-05-07T00:35:14;10.35;90.42
68109;SHT30;54893;49.864;19.084;2023-05-07T00:40:14;10.36;90.57
68109;SHT30;54893;49.864;19.084;2023-05-07T00:45:15;10.24;90.75
68109;SHT30;54893;49.864;19.084;2023-05-07T00:50:16;10.35;90.31
68109;SHT30;54893;49.864;19.084;2023-05-07T00:55:20;10.38;89.98
68109;SHT30;54893;49.864;19.084;2023-05-07T01:00:20;10.26;90.20
68109;SHT30;54893;49.864;19.084;2023-05-07T01:05:22;10.34;89.97
68109;SHT30;54893;49.864;19.084;2023-05-07T01:10:23;10.19;90.46
68109;SHT30;54893;49.864;19.084;2023-05-07T01:15:24;10.38;89.94
68109;SHT30;54893;49.864;19.084;2023-05-07T01:20:24;10.04;90.93
68109;SHT30;54893;49.864;19.084;2023-05-07T01:25:25;9.99;91.38
68109;SHT30;54893;49.864;19.084;2023-05-07T01:30:26;9.97;91.48
68109;SHT30;54893;49.864;19.084;2023-05-07T01:35:32;9.91;91.62
68109;SHT30;54893;49.864;19.084;2023-05-07T01:40:33;9.98;91.49
68109;SHT30;54893;49.864;19.084;2023-05-07T01:45:34;9.80;91.88
68109;SHT30;54893;49.864;19.084;2023-05-07T01:50:36;9.80;91.93
68109;SHT30;54893;49.864;19.084;2023-05-07T01:55:37;9.90;91.68
68109;SHT30;54893;49.864;19.084;2023-05-07T02:00:37;9.75;91.80
68109;SHT30;54893;49.864;19.084;2023-05-07T02:05:38;9.70;92.15
68109;SHT30;54893;49.864;19.084;2023-05-07T02:10:38;9.60;92.36
68109;SHT30;54893;49.864;19.084;2023-05-07T02:15:39;9.58;92.54
68109;SHT30;54893;49.864;19.084;2023-05-07T02:20:39;9.58;92.54
68109;SHT30;54893;49.864;19.084;2023-05-07T02:25:39;9.47;92.69
68109;SHT30;54893;49.864;19.084;2023-05-07T02:30:40;9.48;92.59
68109;SHT30;54893;49.864;19.084;2023-05-07T02:35:40;9.37;92.75
68109;SHT30;54893;49.864;19.084;2023-05-07T02:40:41;9.33;92.84
68109;SHT30;54893;49.864;19.084;2023-05-07T02:45:41;9.30;92.70
68109;SHT30;54893;49.864;19.084;2023-05-07T02:50:43;9.34;92.66
68109;SHT30;54893;49.864;19.084;2023-05-07T02:55:43;9.34;92.47
68109;SHT30;54893;49.864;19.084;2023-05-07T03:00:44;9.36;92.51
68109;SHT30;54893;49.864;19.084;2023-05-07T03:05:44;9.33;92.46
68109;SHT30;54893;49.864;19.084;2023-05-07T03:10:45;9.28;92.50
68109;SHT30;54893;49.864;19.084;2023-05-07T03:15:45;9.24;92.55
68109;SHT30;54893;49.864;19.084;2023-05-07T03:20:47;9.23;92.67
68109;SHT30;54893;49.864;19.084;2023-05-07T03:25:48;9.20;92.82
68109;SHT30;54893;49.864;19.084;2023-05-07T03:30:48;9.27;92.54
68109;SHT30;54893;49.864;19.084;2023-05-07T03:35:49;9.24;92.70
68109;SHT30;54893;49.864;19.084;2023-05-07T03:40:49;9.24;92.52
68109;SHT30;54893;49.864;19.084;2023-05-07T03:45:50;9.22;92.65
68109;SHT30;54893;49.864;19.084;2023-05-07T03:50:51;9.20;92.70
68109;SHT30;54893;49.864;19.084;2023-05-07T03:55:52;9.14;93.23
68109;SHT30;54893;49.864;19.084;2023-05-07T04:00:52;9.27;92.45
68109;SHT30;54893;49.864;19.084;2023-05-07T04:05:52;9.19;92.59
68109;SHT30;54893;49.864;19.084;2023-05-07T04:10:58;9.26;92.64
68109;SHT30;54893;49.864;19.084;2023-05-07T04:16:01;9.19;92.61
68109;SHT30;54893;49.864;19.084;2023-05-07T04:21:02;9.28;92.01
68109;SHT30;54893;49.864;19.084;2023-05-07T04:26:02;9.26;92.35
68109;SHT30;54893;49.864;19.084;2023-05-07T04:31:03;9.09;93.17
68109;SHT30;54893;49.864;19.084;2023-05-07T04:36:04;9.12;93.02
68109;SHT30;54893;49.864;19.084;2023-05-07T04:41:06;9.10;93.27
68109;SHT30;54893;49.864;19.084;2023-05-07T04:46:06;9.12;92.95
68109;SHT30;54893;49.864;19.084;2023-05-07T04:51:07;9.09;93.24
68109;SHT30;54893;49.864;19.084;2023-05-07T04:56:07;9.24;92.57
68109;SHT30;54893;49.864;19.084;2023-05-07T05:01:07;9.16;93.06
68109;SHT30;54893;49.864;19.084;2023-05-07T05:06:08;9.10;92.99
68109;SHT30;54893;49.864;19.084;2023-05-07T05:11:08;9.20;92.79
68109;SHT30;54893;49.864;19.084;2023-05-07T05:16:09;9.26;92.62
68109;SHT30;54893;49.864;19.084;2023-05-07T05:21:09;9.10;92.83
68109;SHT30;54893;49.864;19.084;2023-05-07T05:26:09;9.07;93.33
68109;SHT30;54893;49.864;19.084;2023-05-07T05:31:10;9.07;93.09
68109;SHT30;54893;49.864;19.084;2023-05-07T05:36:10;8.83;94.22
68109;SHT30;54893;49.864;19.084;2023-05-07T05:41:12;8.65;94.92
68109;SHT30;54893;49.864;19.084;2023-05-07T05:46:12;8.45;95.80
68109;SHT30;54893;49.864;19.084;2023-05-07T05:51:12;8.49;95.30
68109;SHT30;54893;49.864;19.084;2023-05-07T05:56:13;8.46;95.18
68109;SHT30;54893;49.864;19.084;2023-05-07T06:01:14;8.31;95.45
68109;SHT30;54893;49.864;19.084;2023-05-07T06:06:14;8.38;95.50
68109;SHT30;54893;49.864;19.084;2023-05-07T06:11:15;8.27;95.53
68109;SHT30;54893;49.864;19.084;2023-05-07T06:16:15;8.14;95.88
68109;SHT30;54893;49.864;19.084;2023-05-07T06:21:16;8.24;95.55
68109;SHT30;54893;49.864;19.084;2023-05-07T06:26:16;8.11;96.08
68109;SHT30;54893;49.864;19.084;2023-05-07T06:31:19;7.99;96.81
68109;SHT30;54893;49.864;19.084;2023-05-07T06:36:22;7.99;96.62
68109;SHT30;54893;49.864;19.084;2023-05-07T06:41:23;8.12;96.13
68109;SHT30;54893;49.864;19.084;2023-05-07T06:46:23;8.06;96.44
68109;SHT30;54893;49.864;19.084;2023-05-07T06:51:23;8.20;95.88
68109;SHT30;54893;49.864;19.084;2023-05-07T06:56:25;7.98;96.41
68109;SHT30;54893;49.864;19.084;2023-05-07T07:01:26;8.05;95.94
68109;SHT30;54893;49.864;19.084;2023-05-07T07:06:26;7.98;96.29
68109;SHT30;54893;49.864;19.084;2023-05-07T07:11:27;8.11;95.64
68109;SHT30;54893;49.864;19.084;2023-05-07T07:16:27;8.02;96.24
68109;SHT30;54893;49.864;19.084;2023-05-07T07:21:27;7.93;96.47
68109;SHT30;54893;49.864;19.084;2023-05-07T07:26:28;7.93;96.41
68109;SHT30;54893;49.864;19.084;2023-05-07T07:31:28;7.78;96.94
68109;SHT30;54893;49.864;19.084;2023-05-07T07:36:29;7.91;96.09
68109;SHT30;54893;49.864;19.084;2023-05-07T07:41:30;7.66;96.42
68109;SHT30;54893;49.864;19.084;2023-05-07T07:46:30;7.60;96.61
68109;SHT30;54893;49.864;19.084;2023-05-07T07:51:30;7.64;96.26
68109;SHT30;54893;49.864;19.084;2023-05-07T07:56:32;7.67;96.60
68109;SHT30;54893;49.864;19.084;2023-05-07T08:01:33;7.70;96.17
68109;SHT30;54893;49.864;19.084;2023-05-07T08:06:34;7.60;96.43
68109;SHT30;54893;49.864;19.084;2023-05-07T08:11:34;7.63;96.32
68109;SHT30;54893;49.864;19.084;2023-05-07T08:16:35;7.78;96.30
68109;SHT30;54893;49.864;19.084;2023-05-07T08:21:38;7.67;95.23
68109;SHT30;54893;49.864;19.084;2023-05-07T08:26:39;7.60;95.57
68109;SHT30;54893;49.864;19.084;2023-05-07T08:31:40;7.77;95.82
68109;SHT30;54893;49.864;19.084;2023-05-07T08:36:40;7.69;95.26
68109;SHT30;54893;49.864;19.084;2023-05-07T08:41:44;7.56;94.89
68109;SHT30;54893;49.864;19.084;2023-05-07T08:46:46;7.61;94.08
68109;SHT30;54893;49.864;19.084;2023-05-07T08:51:48;7.71;94.57
68109;SHT30;54893;49.864;19.084;2023-05-07T08:56:48;7.64;94.39
68109;SHT30;54893;49.864;19.084;2023-05-07T09:01:49;7.64;94.34
68109;SHT30;54893;49.864;19.084;2023-05-07T09:06:49;7.71;94.04
68109;SHT30;54893;49.864;19.084;2023-05-07T09:11:57;7.73;93.45
68109;SHT30;54893;49.864;19.084;2023-05-07T09:16:59;7.51;94.48
68109;SHT30;54893;49.864;19.084;2023-05-07T09:22:01;7.61;93.92
68109;SHT30;54893;49.864;19.084;2023-05-07T09:27:02;7.63;92.78
68109;SHT30;54893;49.864;19.084;2023-05-07T09:32:05;7.60;92.99
68109;SHT30;54893;49.864;19.084;2023-05-07T09:37:07;7.69;93.34
68109;SHT30;54893;49.864;19.084;2023-05-07T09:42:07;7.74;92.61
68109;SHT30;54893;49.864;19.084;2023-05-07T09:47:08;7.83;91.81
68109;SHT30;54893;49.864;19.084;2023-05-07T09:52:09;7.80;92.34
68109;SHT30;54893;49.864;19.084;2023-05-07T09:57:11;7.95;92.05
68109;SHT30;54893;49.864;19.084;2023-05-07T10:02:13;8.18;91.87
68109;SHT30;54893;49.864;19.084;2023-05-07T10:07:16;8.06;91.36
68109;SHT30;54893;49.864;19.084;2023-05-07T10:12:17;8.18;91.60
68109;SHT30;54893;49.864;19.084;2023-05-07T10:17:19;8.01;91.19
68109;SHT30;54893;49.864;19.084;2023-05-07T10:22:21;7.98;91.15
68109;SHT30;54893;49.864;19.084;2023-05-07T10:27:22;7.85;91.07
68109;SHT30;54893;49.864;19.084;2023-05-07T10:32:40;8.11;90.15
68109;SHT30;54893;49.864;19.084;2023-05-07T10:37:43;8.04;90.25
68109;SHT30;54893;49.864;19.084;2023-05-07T10:42:54;8.18;90.42
68109;SHT30;54893;49.864;19.084;2023-05-07T10:48:11;8.31;90.13
68109;SHT30;54893;49.864;19.084;2023-05-07T11:03:22;8.27;90.04
68109;SHT30;54893;49.864;19.084;2023-05-07T11:08:22;8.21;89.95
68109;SHT30;54893;49.864;19.084;2023-05-07T11:18:51;7.93;90.31
68109;SHT30;54893;49.864;19.084;2023-05-07T11:23:55;8.01;90.66
68109;SHT30;54893;49.864;19.084;2023-05-07T11:28:56;8.14;89.78
68109;SHT30;54893;49.864;19.084;2023-05-07T11:33:57;8.18;90.09
68109;SHT30;54893;49.864;19.084;2023-05-07T11:38:58;8.37;89.81
68109;SHT30;54893;49.864;19.084;2023-05-07T11:43:59;8.50;89.49
68109;SHT30;54893;49.864;19.084;2023-05-07T11:49:00;8.15;88.82
68109;SHT30;54893;49.864;19.084;2023-05-07T11:54:03;8.02;88.86
68109;SHT30;54893;49.864;19.084;2023-05-07T11:59:08;8.02;89.85
68109;SHT30;54893;49.864;19.084;2023-05-07T12:04:09;8.34;89.23
68109;SHT30;54893;49.864;19.084;2023-05-07T12:09:09;8.21;89.55
68109;SHT30;54893;49.864;19.084;2023-05-07T12:14:11;8.20;89.71
68109;SHT30;54893;49.864;19.084;2023-05-07T12:19:12;8.20;89.41
68109;SHT30;54893;49.864;19.084;2023-05-07T12:24:14;8.22;88.88
68109;SHT30;54893;49.864;19.084;2023-05-07T12:29:14;8.28;89.54
68109;SHT30;54893;49.864;19.084;2023-05-07T12:34:15;8.49;87.83
68109;SHT30;54893;49.864;19.084;2023-05-07T12:39:16;8.73;88.54
68109;SHT30;54893;49.864;19.084;2023-05-07T12:44:16;8.35;87.60
68109;SHT30;54893;49.864;19.084;2023-05-07T12:49:17;8.38;89.22
68109;SHT30;54893;49.864;19.084;2023-05-07T12:54:33;8.76;88.41
68109;SHT30;54893;49.864;19.084;2023-05-07T12:59:35;8.65;87.99
68109;SHT30;54893;49.864;19.084;2023-05-07T13:04:36;8.66;88.28
68109;SHT30;54893;49.864;19.084;2023-05-07T13:09:36;8.42;88.67
68109;SHT30;54893;49.864;19.084;2023-05-07T13:14:37;8.21;89.20
68109;SHT30;54893;49.864;19.084;2023-05-07T13:19:37;8.38;89.25
68109;SHT30;54893;49.864;19.084;2023-05-07T13:24:38;8.12;88.94
68109;SHT30;54893;49.864;19.084;2023-05-07T13:29:41;7.70;89.70
68109;SHT30;54893;49.864;19.084;2023-05-07T13:34:42;7.73;90.11
68109;SHT30;54893;49.864;19.084;2023-05-07T13:39:42;7.51;90.35
68109;SHT30;54893;49.864;19.084;2023-05-07T13:44:42;7.43;90.89
68109;SHT30;54893;49.864;19.084;2023-05-07T13:49:44;7.77;89.87
68109;SHT30;54893;49.864;19.084;2023-05-07T13:54:44;8.04;89.55
68109;SHT30;54893;49.864;19.084;2023-05-07T13:59:45;7.98;89.01
68109;SHT30;54893;49.864;19.084;2023-05-07T14:04:45;8.01;88.74
68109;SHT30;54893;49.864;19.084;2023-05-07T14:09:45;8.04;88.96
68109;SHT30;54893;49.864;19.084;2023-05-07T14:14:46;8.20;88.57
68109;SHT30;54893;49.864;19.084;2023-05-07T14:19:46;7.77;89.96
68109;SHT30;54893;49.864;19.084;2023-05-07T14:24:47;7.84;88.96
68109;SHT30;54893;49.864;19.084;2023-05-07T14:29:47;7.74;89.26
68109;SHT30;54893;49.864;19.084;2023-05-07T14:34:51;7.78;89.34
68109;SHT30;54893;49.864;19.084;2023-05-07T14:39:51;7.66;89.49
68109;SHT30;54893;49.864;19.084;2023-05-07T14:44:51;7.59;89.18
68109;SHT30;54893;49.864;19.084;2023-05-07T14:49:53;7.43;89.57
68109;SHT30;54893;49.864;19.084;2023-05-07T14:54:54;7.40;88.77
68109;SHT30;54893;49.864;19.084;2023-05-07T14:59:54;7.34;89.19
68109;SHT30;54893;49.864;19.084;2023-05-07T15:04:55;7.29;89.16
68109;SHT30;54893;49.864;19.084;2023-05-07T15:09:55;7.36;88.96
68109;SHT30;54893;49.864;19.084;2023-05-07T15:14:56;7.30;89.36
68109;SHT30;54893;49.864;19.084;2023-05-07T15:19:57;7.33;88.90
68109;SHT30;54893;49.864;19.084;2023-05-07T15:24:57;7.34;88.60
68109;SHT30;54893;49.864;19.084;2023-05-07T15:29:58;7.29;88.90
68109;SHT30;54893;49.864;19.084;2023-05-07T15:34:59;7.29;88.70
68109;SHT30;54893;49.864;19.084;2023-05-07T15:39:59;7.29;88.86
68109;SHT30;54893;49.864;19.084;2023-05-07T15:45:02;7.29;88.90
68109;SHT30;54893;49.864;19.084;2023-05-07T15:50:03;7.31;89.00
68109;SHT30;54893;49.864;19.084;2023-05-07T15:55:04;7.23;89.01
68109;SHT30;54893;49.864;19.084;2023-05-07T16:00:06;7.19;89.22
68109;SHT30;54893;49.864;19.084;2023-05-07T16:05:08;7.06;88.99
68109;SHT30;54893;49.864;19.084;2023-05-07T16:10:10;6.96;89.16
68109;SHT30;54893;49.864;19.084;2023-05-07T16:15:11;6.91;89.05
68109;SHT30;54893;49.864;19.084;2023-05-07T16:20:11;6.86;89.10
68109;SHT30;54893;49.864;19.084;2023-05-07T16:25:12;6.83;89.11
68109;SHT30;54893;49.864;19.084;2023-05-07T16:30:13;6.85;89.18
68109;SHT30;54893;49.864;19.084;2023-05-07T16:35:14;6.82;89.19
68109;SHT30;54893;49.864;19.084;2023-05-07T16:40:14;6.83;89.13
68109;SHT30;54893;49.864;19.084;2023-05-07T16:45:15;6.82;88.96
68109;SHT30;54893;49.864;19.084;2023-05-07T16:50:17;6.75;89.06
68109;SHT30;54893;49.864;19.084;2023-05-07T16:55:18;6.76;89.33
68109;SHT30;54893;49.864;19.084;2023-05-07T17:00:18;6.78;89.07
68109;SHT30;54893;49.864;19.084;2023-05-07T17:05:19;6.75;89.10
68109;SHT30;54893;49.864;19.084;2023-05-07T17:10:19;6.68;89.06
68109;SHT30;54893;49.864;19.084;2023-05-07T17:15:20;6.61;89.99
68109;SHT30;54893;49.864;19.084;2023-05-07T17:20:20;6.56;89.83
68109;SHT30;54893;49.864;19.084;2023-05-07T17:25:21;6.58;89.71
68109;SHT30;54893;49.864;19.084;2023-05-07T17:30:22;6.45;90.28
68109;SHT30;54893;49.864;19.084;2023-05-07T17:35:26;6.49;90.34
68109;SHT30;54893;49.864;19.084;2023-05-07T17:40:32;6.38;90.64
68109;SHT30;54893;49.864;19.084;2023-05-07T17:45:33;6.34;90.70
68109;SHT30;54893;49.864;19.084;2023-05-07T17:50:34;6.24;91.30
68109;SHT30;54893;49.864;19.084;2023-05-07T17:55:34;6.24;90.92
68109;SHT30;54893;49.864;19.084;2023-05-07T18:00:39;6.25;90.99
68109;SHT30;54893;49.864;19.084;2023-05-07T18:05:40;6.14;90.92
68109;SHT30;54893;49.864;19.084;2023-05-07T18:10:40;6.11;91.20
68109;SHT30;54893;49.864;19.084;2023-05-07T18:15:40;6.17;90.91
68109;SHT30;54893;49.864;19.084;2023-05-07T18:20:41;6.18;90.88
68109;SHT30;54893;49.864;19.084;2023-05-07T18:25:41;6.15;91.01
68109;SHT30;54893;49.864;19.084;2023-05-07T18:30:42;6.17;90.99
68109;SHT30;54893;49.864;19.084;2023-05-07T18:35:42;6.15;91.17
68109;SHT30;54893;49.864;19.084;2023-05-07T18:40:43;6.20;91.01
68109;SHT30;54893;49.864;19.084;2023-05-07T18:45:47;6.15;91.28
68109;SHT30;54893;49.864;19.084;2023-05-07T18:50:47;6.11;91.02
68109;SHT30;54893;49.864;19.084;2023-05-07T18:55:51;6.10;90.77
68109;SHT30;54893;49.864;19.084;2023-05-07T19:00:52;6.07;90.93
68109;SHT30;54893;49.864;19.084;2023-05-07T19:05:52;6.00;91.20
68109;SHT30;54893;49.864;19.084;2023-05-07T19:10:55;5.98;91.40
68109;SHT30;54893;49.864;19.084;2023-05-07T19:15:55;6.04;91.04
68109;SHT30;54893;49.864;19.084;2023-05-07T19:20:56;5.97;91.25
68109;SHT30;54893;49.864;19.084;2023-05-07T19:25:56;6.01;91.20
68109;SHT30;54893;49.864;19.084;2023-05-07T19:30:56;6.00;90.86
68109;SHT30;54893;49.864;19.084;2023-05-07T19:35:57;5.97;91.29
68109;SHT30;54893;49.864;19.084;2023-05-07T19:41:00;5.95;90.93
68109;SHT30;54893;49.864;19.084;2023-05-07T19:46:01;5.97;90.71
68109;SHT30;54893;49.864;19.084;2023-05-07T19:51:02;5.95;90.62
68109;SHT30;54893;49.864;19.084;2023-05-07T19:56:03;5.90;90.98
68109;SHT30;54893;49.864;19.084;2023-05-07T20:01:04;5.89;91.00
68109;SHT30;54893;49.864;19.084;2023-05-07T20:06:05;5.89;90.95
68109;SHT30;54893;49.864;19.084;2023-05-07T20:11:05;5.80;91.24
68109;SHT30;54893;49.864;19.084;2023-05-07T20:16:06;5.83;90.93
68109;SHT30;54893;49.864;19.084;2023-05-07T20:21:06;5.74;91.19
68109;SHT30;54893;49.864;19.084;2023-05-07T20:26:06;5.81;90.94
68109;SHT30;54893;49.864;19.084;2023-05-07T20:31:07;5.78;91.08
68109;SHT30;54893;49.864;19.084;2023-05-07T20:36:07;5.77;90.96
68109;SHT30;54893;49.864;19.084;2023-05-07T20:41:09;5.75;91.23
68109;SHT30;54893;49.864;19.084;2023-05-07T20:46:11;5.78;91.05
68109;SHT30;54893;49.864;19.084;2023-05-07T20:51:11;5.80;90.93
68109;SHT30;54893;49.864;19.084;2023-05-07T20:56:14;5.75;91.29
68109;SHT30;54893;49.864;19.084;2023-05-07T21:01:15;5.66;91.56
68109;SHT30;54893;49.864;19.084;2023-05-07T21:06:16;5.69;91.12
68109;SHT30;54893;49.864;19.084;2023-05-07T21:11:16;5.69;91.25
68109;SHT30;54893;49.864;19.084;2023-05-07T21:16:17;5.59;91.63
68109;SHT30;54893;49.864;19.084;2023-05-07T21:21:17;5.53;91.72
68109;SHT30;54893;49.864;19.084;2023-05-07T21:26:18;5.54;92.30
68109;SHT30;54893;49.864;19.084;2023-05-07T21:31:19;5.57;91.80
68109;SHT30;54893;49.864;19.084;2023-05-07T21:36:20;5.53;92.13
68109;SHT30;54893;49.864;19.084;2023-05-07T21:41:20;5.43;92.53
68109;SHT30;54893;49.864;19.084;2023-05-07T21:46:21;5.39;92.21
68109;SHT30;54893;49.864;19.084;2023-05-07T21:51:21;5.42;92.18
68109;SHT30;54893;49.864;19.084;2023-05-07T21:56:21;5.46;91.85
68109;SHT30;54893;49.864;19.084;2023-05-07T22:01:22;5.43;91.74
68109;SHT30;54893;49.864;19.084;2023-05-07T22:06:22;5.47;91.55
68109;SHT30;54893;49.864;19.084;2023-05-07T22:11:24;5.46;91.76
68109;SHT30;54893;49.864;19.084;2023-05-07T22:16:25;5.44;91.70
68109;SHT30;54893;49.864;19.084;2023-05-07T22:21:25;5.43;91.87
68109;SHT30;54893;49.864;19.084;2023-05-07T22:26:26;5.44;91.74
68109;SHT30;54893;49.864;19.084;2023-05-07T22:31:26;5.43;92.00
68109;SHT30;54893;49.864;19.084;2023-05-07T22:36:27;5.44;91.87
68109;SHT30;54893;49.864;19.084;2023-05-07T22:41:27;5.42;92.00
68109;SHT30;54893;49.864;19.084;2023-05-07T22:46:28;5.37;92.26
68109;SHT30;54893;49.864;19.084;2023-05-07T22:51:28;5.39;92.01
68109;SHT30;54893;49.864;19.084;2023-05-07T22:56:29;5.37;92.02
68109;SHT30;54893;49.864;19.084;2023-05-07T23:01:29;5.32;92.26
68109;SHT30;54893;49.864;19.084;2023-05-07T23:06:29;5.32;92.31
68109;SHT30;54893;49.864;19.084;2023-05-07T23:11:30;5.30;92.07
68109;SHT30;54893;49.864;19.084;2023-05-07T23:16:30;5.30;92.30
68109;SHT30;54893;49.864;19.084;2023-05-07T23:21:31;5.26;92.05
68109;SHT30;54893;49.864;19.084;2023-05-07T23:26:31;5.35;91.87
68109;SHT30;54893;49.864;19.084;2023-05-07T23:31:31;5.30;92.00
68109;SHT30;54893;49.864;19.084;2023-05-07T23:36:32;5.23;92.16
68109;SHT30;54893;49.864;19.084;2023-05-07T23:41:32;5.19;92.32
68109;SHT30;54893;49.864;19.084;2023-05-07T23:46:33;5.20;92.31
68109;SHT30;54893;49.864;19.084;2023-05-07T23:51:33;5.27;91.90
68109;SHT30;54893;49.864;19.084;2023-05-07T23:56:34;5.22;92.01
